sensor_id;sensor_type;location;lat;lon;timestamp;P1;durP1;ratioP1;P2;durP2;ratioP2
22201;SDS011;11266;51.522;6.302;2023-05-07T00:00:05;10.65;;;4.85;;
22201;SDS011;11266;51.522;6.302;2023-05-07T00:00:54;7.75;;;4.82;;
22201;SDS011;11266;51.522;6.302;2023-05-07T00:01:40;7.47;;;4.82;;
22201;SDS011;11266;51.522;6.302;2023-05-07T00:02:26;8.15;;;5.00;;
22201;SDS011;11266;51.522;6.302;2023-05-07T00:03:12;7.07;;;5.00;;
22201;SDS011;11266;51.522;6.302;2023-05-07T00:03:58;7.13;;;4.60;;
22201;SDS011;11266;51.522;6.302;2023-05-07T00:04:44;8.77;;;4.90;;
22201;SDS011;11266;51.522;6.302;2023-05-07T00:05:30;7.05;;;4.82;;
22201;SDS011;11266;51.522;6.302;2023-05-07T00:06:16;9.23;;;4.97;;
22201;SDS011;11266;51.522;6.302;2023-05-07T00:07:02;8.05;;;5.15;;
22201;SDS011;11266;51.522;6.302;2023-05-07T00:07:48;8.10;;;5.43;;
22201;SDS011;11266;51.522;6.302;2023-05-07T00:08:35;8.32;;;5.07;;
22201;SDS011;11266;51.522;6.302;2023-05-07T00:09:21;8.05;;;5.15;;
22201;SDS011;11266;51.522;6.302;2023-05-07T00:10:07;8.93;;;5.40;;
22201;SDS011;11266;51.522;6.302;2023-05-07T00:10:53;8.35;;;4.85;;
22201;SDS011;11266;51.522;6.302;2023-05-07T00:11:39;8.07;;;5.13;;
22201;SDS011;11266;51.522;6.302;2023-05-07T00:12:25;8.73;;;4.95;;
22201;SDS011;11266;51.522;6.302;2023-05-07T00:13:11;6.82;;;4.43;;
22201;SDS011;11266;51.522;6.302;2023-05-07T00:14:00;6.13;;;4.25;;
22201;SDS011;11266;51.522;6.302;2023-05-07T00:14:46;8.05;;;4.70;;
22201;SDS011;11266;51.522;6.302;2023-05-07T00:15:32;6.50;;;5.05;;
22201;SDS011;11266;51.522;6.302;2023-05-07T00:16:18;8.07;;;5.65;;
22201;SDS011;11266;51.522;6.302;2023-05-07T00:17:04;7.97;;;5.40;;
22201;SDS011;11266;51.522;6.302;2023-05-07T00:17:49;8.48;;;4.95;;
22201;SDS011;11266;51.522;6.302;2023-05-07T00:18:35;7.22;;;5.45;;
22201;SDS011;11266;51.522;6.302;2023-05-07T00:19:21;7.95;;;5.47;;
22201;SDS011;11266;51.522;6.302;2023-05-07T00:20:07;8.20;;;5.53;;
22201;SDS011;11266;51.522;6.302;2023-05-07T00:20:53;8.82;;;5.63;;
22201;SDS011;11266;51.522;6.302;2023-05-07T00:21:39;11.10;;;5.85;;
22201;SDS011;11266;51.522;6.302;2023-05-07T00:22:25;12.60;;;6.10;;
22201;SDS011;11266;51.522;6.302;2023-05-07T00:23:14;8.55;;;5.43;;
22201;SDS011;11266;51.522;6.302;2023-05-07T00:23:59;11.02;;;5.95;;
22201;SDS011;11266;51.522;6.302;2023-05-07T00:24:46;7.93;;;5.47;;
22201;SDS011;11266;51.522;6.302;2023-05-07T00:25:31;8.50;;;5.88;;
22201;SDS011;11266;51.522;6.302;2023-05-07T00:26:17;9.38;;;6.00;;
22201;SDS011;11266;51.522;6.302;2023-05-07T00:27:03;7.50;;;5.55;;
22201;SDS011;11266;51.522;6.302;2023-05-07T00:27:49;11.43;;;5.93;;
22201;SDS011;11266;51.522;6.302;2023-05-07T00:28:35;9.05;;;5.50;;
22201;SDS011;11266;51.522;6.302;2023-05-07T00:29:21;10.18;;;5.75;;
22201;SDS011;11266;51.522;6.302;2023-05-07T00:30:06;7.38;;;5.38;;
22201;SDS011;11266;51.522;6.302;2023-05-07T00:30:53;8.75;;;5.72;;
22201;SDS011;11266;51.522;6.302;2023-05-07T00:31:39;9.00;;;5.85;;
22201;SDS011;11266;51.522;6.302;2023-05-07T00:32:25;8.45;;;5.97;;
22201;SDS011;11266;51.522;6.302;2023-05-07T00:33:10;9.05;;;5.90;;
22201;SDS011;11266;51.522;6.302;2023-05-07T00:33:56;10.65;;;6.22;;
22201;SDS011;11266;51.522;6.302;2023-05-07T00:34:42;11.63;;;6.90;;
22201;SDS011;11266;51.522;6.302;2023-05-07T00:35:29;9.30;;;7.05;;
22201;SDS011;11266;51.522;6.302;2023-05-07T00:36:15;11.05;;;6.78;;
22201;SDS011;11266;51.522;6.302;2023-05-07T00:37:01;13.18;;;7.07;;
22201;SDS011;11266;51.522;6.302;2023-05-07T00:37:46;9.35;;;6.63;;
22201;SDS011;11266;51.522;6.302;2023-05-07T00:38:33;10.18;;;7.18;;
22201;SDS011;11266;51.522;6.302;2023-05-07T00:39:19;13.63;;;7.38;;
22201;SDS011;11266;51.522;6.302;2023-05-07T00:40:05;12.40;;;7.22;;
22201;SDS011;11266;51.522;6.302;2023-05-07T00:40:52;10.60;;;7.68;;
22201;SDS011;11266;51.522;6.302;2023-05-07T00:41:38;11.15;;;6.80;;
22201;SDS011;11266;51.522;6.302;2023-05-07T00:42:24;8.60;;;6.63;;
22201;SDS011;11266;51.522;6.302;2023-05-07T00:43:10;10.25;;;6.78;;
22201;SDS011;11266;51.522;6.302;2023-05-07T00:43:56;11.38;;;7.55;;
22201;SDS011;11266;51.522;6.302;2023-05-07T00:44:42;13.68;;;7.72;;
22201;SDS011;11266;51.522;6.302;2023-05-07T00:45:31;11.65;;;8.05;;
22201;SDS011;11266;51.522;6.302;2023-05-07T00:46:18;12.38;;;8.60;;
22201;SDS011;11266;51.522;6.302;2023-05-07T00:47:06;9.32;;;6.80;;
22201;SDS011;11266;51.522;6.302;2023-05-07T00:47:55;9.52;;;7.07;;
22201;SDS011;11266;51.522;6.302;2023-05-07T00:48:47;11.13;;;6.70;;
22201;SDS011;11266;51.522;6.302;2023-05-07T00:49:38;10.73;;;6.80;;
22201;SDS011;11266;51.522;6.302;2023-05-07T00:50:26;9.02;;;6.30;;
22201;SDS011;11266;51.522;6.302;2023-05-07T00:51:13;9.95;;;7.03;;
22201;SDS011;11266;51.522;6.302;2023-05-07T00:51:59;8.88;;;6.32;;
22201;SDS011;11266;51.522;6.302;2023-05-07T00:52:45;13.75;;;6.95;;
22201;SDS011;11266;51.522;6.302;2023-05-07T00:53:31;9.50;;;6.85;;
22201;SDS011;11266;51.522;6.302;2023-05-07T00:54:17;10.60;;;7.15;;
22201;SDS011;11266;51.522;6.302;2023-05-07T00:55:05;11.52;;;7.40;;
22201;SDS011;11266;51.522;6.302;2023-05-07T00:55:52;10.95;;;7.03;;
22201;SDS011;11266;51.522;6.302;2023-05-07T00:56:38;11.23;;;7.60;;
22201;SDS011;11266;51.522;6.302;2023-05-07T00:57:24;11.98;;;7.25;;
22201;SDS011;11266;51.522;6.302;2023-05-07T00:58:10;11.00;;;7.55;;
22201;SDS011;11266;51.522;6.302;2023-05-07T00:58:56;12.25;;;7.70;;
22201;SDS011;11266;51.522;6.302;2023-05-07T00:59:42;12.75;;;8.00;;
22201;SDS011;11266;51.522;6.302;2023-05-07T01:00:28;12.35;;;8.13;;
22201;SDS011;11266;51.522;6.302;2023-05-07T01:01:14;10.60;;;8.40;;
22201;SDS011;11266;51.522;6.302;2023-05-07T01:02:03;10.05;;;7.57;;
22201;SDS011;11266;51.522;6.302;2023-05-07T01:02:48;13.55;;;8.55;;
22201;SDS011;11266;51.522;6.302;2023-05-07T01:03:34;10.48;;;7.30;;
22201;SDS011;11266;51.522;6.302;2023-05-07T01:04:20;10.20;;;7.75;;
22201;SDS011;11266;51.522;6.302;2023-05-07T01:05:07;12.48;;;7.75;;
22201;SDS011;11266;51.522;6.302;2023-05-07T01:05:55;10.25;;;7.68;;
22201;SDS011;11266;51.522;6.302;2023-05-07T01:06:44;11.80;;;8.20;;
22201;SDS011;11266;51.522;6.302;2023-05-07T01:07:31;12.32;;;7.85;;
22201;SDS011;11266;51.522;6.302;2023-05-07T01:08:18;12.23;;;8.90;;
22201;SDS011;11266;51.522;6.302;2023-05-07T01:09:04;10.88;;;8.35;;
22201;SDS011;11266;51.522;6.302;2023-05-07T01:09:50;11.80;;;8.15;;
22201;SDS011;11266;51.522;6.302;2023-05-07T01:10:36;10.88;;;8.18;;
22201;SDS011;11266;51.522;6.302;2023-05-07T01:11:22;10.10;;;7.70;;
22201;SDS011;11266;51.522;6.302;2023-05-07T01:12:08;13.38;;;8.40;;
22201;SDS011;11266;51.522;6.302;2023-05-07T01:12:55;11.75;;;8.23;;
22201;SDS011;11266;51.522;6.302;2023-05-07T01:13:43;13.30;;;8.02;;
22201;SDS011;11266;51.522;6.302;2023-05-07T01:14:29;11.30;;;8.15;;
22201;SDS011;11266;51.522;6.302;2023-05-07T01:15:18;10.57;;;7.78;;
22201;SDS011;11266;51.522;6.302;2023-05-07T01:16:04;11.27;;;8.63;;
22201;SDS011;11266;51.522;6.302;2023-05-07T01:16:53;12.43;;;8.45;;
22201;SDS011;11266;51.522;6.302;2023-05-07T01:17:40;10.52;;;7.45;;
22201;SDS011;11266;51.522;6.302;2023-05-07T01:18:27;9.13;;;7.55;;
22201;SDS011;11266;51.522;6.302;2023-05-07T01:19:14;12.52;;;8.43;;
22201;SDS011;11266;51.522;6.302;2023-05-07T01:20:04;13.02;;;8.07;;
22201;SDS011;11266;51.522;6.302;2023-05-07T01:20:52;11.90;;;8.02;;
22201;SDS011;11266;51.522;6.302;2023-05-07T01:21:39;11.82;;;8.30;;
22201;SDS011;11266;51.522;6.302;2023-05-07T01:22:37;12.85;;;9.40;;
22201;SDS011;11266;51.522;6.302;2023-05-07T01:23:28;10.88;;;8.30;;
22201;SDS011;11266;51.522;6.302;2023-05-07T01:24:15;10.40;;;8.60;;
22201;SDS011;11266;51.522;6.302;2023-05-07T01:25:01;12.68;;;8.73;;
22201;SDS011;11266;51.522;6.302;2023-05-07T01:25:51;14.98;;;9.00;;
22201;SDS011;11266;51.522;6.302;2023-05-07T01:26:38;10.82;;;7.90;;
22201;SDS011;11266;51.522;6.302;2023-05-07T01:27:25;11.65;;;8.43;;
22201;SDS011;11266;51.522;6.302;2023-05-07T01:28:11;10.55;;;7.70;;
22201;SDS011;11266;51.522;6.302;2023-05-07T01:28:57;10.23;;;7.07;;
22201;SDS011;11266;51.522;6.302;2023-05-07T01:29:42;14.25;;;8.55;;
22201;SDS011;11266;51.522;6.302;2023-05-07T01:30:28;10.18;;;7.75;;
22201;SDS011;11266;51.522;6.302;2023-05-07T01:31:15;11.75;;;8.18;;
22201;SDS011;11266;51.522;6.302;2023-05-07T01:32:02;10.80;;;7.32;;
22201;SDS011;11266;51.522;6.302;2023-05-07T01:33:06;11.18;;;7.95;;
22201;SDS011;11266;51.522;6.302;2023-05-07T01:33:58;11.63;;;8.25;;
22201;SDS011;11266;51.522;6.302;2023-05-07T01:34:46;11.00;;;8.18;;
22201;SDS011;11266;51.522;6.302;2023-05-07T01:35:35;11.88;;;8.55;;
22201;SDS011;11266;51.522;6.302;2023-05-07T01:36:24;12.80;;;8.45;;
22201;SDS011;11266;51.522;6.302;2023-05-07T01:37:12;11.93;;;7.82;;
22201;SDS011;11266;51.522;6.302;2023-05-07T01:37:59;11.68;;;8.05;;
22201;SDS011;11266;51.522;6.302;2023-05-07T01:38:46;10.50;;;8.35;;
22201;SDS011;11266;51.522;6.302;2023-05-07T01:39:32;11.40;;;8.15;;
22201;SDS011;11266;51.522;6.302;2023-05-07T01:40:19;12.68;;;9.30;;
22201;SDS011;11266;51.522;6.302;2023-05-07T01:41:05;14.45;;;8.88;;
22201;SDS011;11266;51.522;6.302;2023-05-07T01:41:53;11.35;;;8.73;;
22201;SDS011;11266;51.522;6.302;2023-05-07T01:42:43;11.57;;;7.80;;
22201;SDS011;11266;51.522;6.302;2023-05-07T01:43:30;9.45;;;8.27;;
22201;SDS011;11266;51.522;6.302;2023-05-07T01:44:16;11.43;;;8.50;;
22201;SDS011;11266;51.522;6.302;2023-05-07T01:45:04;12.57;;;8.20;;
22201;SDS011;11266;51.522;6.302;2023-05-07T01:45:50;10.63;;;8.07;;
22201;SDS011;11266;51.522;6.302;2023-05-07T01:46:37;10.23;;;8.05;;
22201;SDS011;11266;51.522;6.302;2023-05-07T01:47:23;13.45;;;9.00;;
22201;SDS011;11266;51.522;6.302;2023-05-07T01:48:11;11.80;;;9.20;;
22201;SDS011;11266;51.522;6.302;2023-05-07T01:48:57;15.50;;;9.73;;
22201;SDS011;11266;51.522;6.302;2023-05-07T01:49:44;13.55;;;9.27;;
22201;SDS011;11266;51.522;6.302;2023-05-07T01:50:30;9.85;;;7.78;;
22201;SDS011;11266;51.522;6.302;2023-05-07T01:51:17;11.02;;;8.65;;
22201;SDS011;11266;51.522;6.302;2023-05-07T01:52:04;12.77;;;9.02;;
22201;SDS011;11266;51.522;6.302;2023-05-07T01:52:51;12.20;;;8.98;;
22201;SDS011;11266;51.522;6.302;2023-05-07T01:53:38;17.20;;;8.88;;
22201;SDS011;11266;51.522;6.302;2023-05-07T01:54:26;11.52;;;9.32;;
22201;SDS011;11266;51.522;6.302;2023-05-07T01:55:15;10.75;;;9.10;;
22201;SDS011;11266;51.522;6.302;2023-05-07T01:56:01;10.45;;;8.25;;
22201;SDS011;11266;51.522;6.302;2023-05-07T01:56:47;12.15;;;9.45;;
22201;SDS011;11266;51.522;6.302;2023-05-07T01:57:34;15.02;;;10.30;;
22201;SDS011;11266;51.522;6.302;2023-05-07T01:58:23;13.20;;;10.02;;
22201;SDS011;11266;51.522;6.302;2023-05-07T01:59:09;12.40;;;9.23;;
22201;SDS011;11266;51.522;6.302;2023-05-07T01:59:55;13.30;;;10.23;;
22201;SDS011;11266;51.522;6.302;2023-05-07T02:00:41;14.10;;;9.85;;
22201;SDS011;11266;51.522;6.302;2023-05-07T02:01:27;16.70;;;10.57;;
22201;SDS011;11266;51.522;6.302;2023-05-07T02:02:14;12.52;;;9.80;;
22201;SDS011;11266;51.522;6.302;2023-05-07T02:03:00;12.98;;;10.20;;
22201;SDS011;11266;51.522;6.302;2023-05-07T02:03:46;9.93;;;8.82;;
22201;SDS011;11266;51.522;6.302;2023-05-07T02:04:32;13.73;;;8.90;;
22201;SDS011;11266;51.522;6.302;2023-05-07T02:05:18;12.77;;;9.10;;
22201;SDS011;11266;51.522;6.302;2023-05-07T02:06:04;11.95;;;9.02;;
22201;SDS011;11266;51.522;6.302;2023-05-07T02:06:50;11.55;;;9.13;;
22201;SDS011;11266;51.522;6.302;2023-05-07T02:07:39;13.05;;;10.18;;
22201;SDS011;11266;51.522;6.302;2023-05-07T02:08:25;13.02;;;10.38;;
22201;SDS011;11266;51.522;6.302;2023-05-07T02:09:11;11.57;;;9.15;;
22201;SDS011;11266;51.522;6.302;2023-05-07T02:09:59;10.25;;;8.80;;
22201;SDS011;11266;51.522;6.302;2023-05-07T02:10:45;11.27;;;9.27;;
22201;SDS011;11266;51.522;6.302;2023-05-07T02:11:31;12.18;;;10.23;;
22201;SDS011;11266;51.522;6.302;2023-05-07T02:12:17;13.30;;;10.02;;
22201;SDS011;11266;51.522;6.302;2023-05-07T02:13:03;15.07;;;9.98;;
22201;SDS011;11266;51.522;6.302;2023-05-07T02:13:52;12.35;;;10.00;;
22201;SDS011;11266;51.522;6.302;2023-05-07T02:14:38;10.82;;;9.25;;
22201;SDS011;11266;51.522;6.302;2023-05-07T02:15:24;12.88;;;10.45;;
22201;SDS011;11266;51.522;6.302;2023-05-07T02:16:09;14.07;;;10.32;;
22201;SDS011;11266;51.522;6.302;2023-05-07T02:16:55;12.10;;;9.82;;
22201;SDS011;11266;51.522;6.302;2023-05-07T02:18:01;14.23;;;10.15;;
22201;SDS011;11266;51.522;6.302;2023-05-07T02:18:48;12.70;;;10.15;;
22201;SDS011;11266;51.522;6.302;2023-05-07T02:19:34;12.02;;;9.52;;
22201;SDS011;11266;51.522;6.302;2023-05-07T02:20:20;15.10;;;10.30;;
22201;SDS011;11266;51.522;6.302;2023-05-07T02:21:06;13.27;;;10.18;;
22201;SDS011;11266;51.522;6.302;2023-05-07T02:21:52;13.48;;;10.43;;
22201;SDS011;11266;51.522;6.302;2023-05-07T02:22:38;13.07;;;10.52;;
22201;SDS011;11266;51.522;6.302;2023-05-07T02:23:23;13.93;;;9.60;;
22201;SDS011;11266;51.522;6.302;2023-05-07T02:24:15;11.95;;;9.32;;
22201;SDS011;11266;51.522;6.302;2023-05-07T02:25:01;11.70;;;9.55;;
22201;SDS011;11266;51.522;6.302;2023-05-07T02:25:46;13.98;;;9.90;;
22201;SDS011;11266;51.522;6.302;2023-05-07T02:26:32;12.52;;;9.77;;
22201;SDS011;11266;51.522;6.302;2023-05-07T02:27:19;11.63;;;9.40;;
22201;SDS011;11266;51.522;6.302;2023-05-07T02:28:05;12.57;;;9.18;;
22201;SDS011;11266;51.522;6.302;2023-05-07T02:28:51;12.98;;;9.57;;
22201;SDS011;11266;51.522;6.302;2023-05-07T02:29:37;14.75;;;9.85;;
22201;SDS011;11266;51.522;6.302;2023-05-07T02:30:22;10.70;;;9.60;;
22201;SDS011;11266;51.522;6.302;2023-05-07T02:31:10;14.23;;;10.55;;
22201;SDS011;11266;51.522;6.302;2023-05-07T02:31:56;13.27;;;9.57;;
22201;SDS011;11266;51.522;6.302;2023-05-07T02:32:41;11.07;;;9.55;;
22201;SDS011;11266;51.522;6.302;2023-05-07T02:33:27;15.00;;;10.40;;
22201;SDS011;11266;51.522;6.302;2023-05-07T02:34:17;12.48;;;9.70;;
22201;SDS011;11266;51.522;6.302;2023-05-07T02:35:02;13.68;;;9.63;;
22201;SDS011;11266;51.522;6.302;2023-05-07T02:35:50;14.43;;;9.73;;
22201;SDS011;11266;51.522;6.302;2023-05-07T02:36:37;13.63;;;9.70;;
22201;SDS011;11266;51.522;6.302;2023-05-07T02:37:28;10.85;;;9.23;;
22201;SDS011;11266;51.522;6.302;2023-05-07T02:38:14;12.77;;;9.45;;
22201;SDS011;11266;51.522;6.302;2023-05-07T02:39:00;11.05;;;9.38;;
22201;SDS011;11266;51.522;6.302;2023-05-07T02:39:47;14.20;;;9.80;;
22201;SDS011;11266;51.522;6.302;2023-05-07T02:40:33;11.27;;;10.02;;
22201;SDS011;11266;51.522;6.302;2023-05-07T02:41:19;15.15;;;10.60;;
22201;SDS011;11266;51.522;6.302;2023-05-07T02:42:05;13.80;;;9.80;;
22201;SDS011;11266;51.522;6.302;2023-05-07T02:42:51;12.45;;;9.75;;
22201;SDS011;11266;51.522;6.302;2023-05-07T02:43:37;14.23;;;9.75;;
22201;SDS011;11266;51.522;6.302;2023-05-07T02:44:23;11.75;;;10.15;;
22201;SDS011;11266;51.522;6.302;2023-05-07T02:45:09;14.77;;;10.50;;
22201;SDS011;11266;51.522;6.302;2023-05-07T02:46:05;12.40;;;9.68;;
22201;SDS011;11266;51.522;6.302;2023-05-07T02:46:52;11.77;;;9.68;;
22201;SDS011;11266;51.522;6.302;2023-05-07T02:47:38;13.13;;;10.05;;
22201;SDS011;11266;51.522;6.302;2023-05-07T02:48:24;13.02;;;9.82;;
22201;SDS011;11266;51.522;6.302;2023-05-07T02:49:10;14.38;;;10.02;;
22201;SDS011;11266;51.522;6.302;2023-05-07T02:49:56;11.65;;;9.50;;
22201;SDS011;11266;51.522;6.302;2023-05-07T02:50:41;10.63;;;9.07;;
22201;SDS011;11266;51.522;6.302;2023-05-07T02:51:27;10.23;;;9.15;;
22201;SDS011;11266;51.522;6.302;2023-05-07T02:52:15;14.55;;;10.27;;
22201;SDS011;11266;51.522;6.302;2023-05-07T02:53:01;11.30;;;9.23;;
22201;SDS011;11266;51.522;6.302;2023-05-07T02:53:47;12.07;;;10.07;;
22201;SDS011;11266;51.522;6.302;2023-05-07T02:54:33;12.93;;;9.25;;
22201;SDS011;11266;51.522;6.302;2023-05-07T02:55:18;12.18;;;9.75;;
22201;SDS011;11266;51.522;6.302;2023-05-07T02:56:04;12.73;;;10.18;;
22201;SDS011;11266;51.522;6.302;2023-05-07T02:56:51;12.63;;;9.43;;
22201;SDS011;11266;51.522;6.302;2023-05-07T02:57:37;11.43;;;9.32;;
22201;SDS011;11266;51.522;6.302;2023-05-07T02:58:23;12.88;;;9.25;;
22201;SDS011;11266;51.522;6.302;2023-05-07T02:59:08;13.27;;;9.85;;
22201;SDS011;11266;51.522;6.302;2023-05-07T02:59:55;12.75;;;9.98;;
22201;SDS011;11266;51.522;6.302;2023-05-07T03:00:42;12.13;;;9.20;;
22201;SDS011;11266;51.522;6.302;2023-05-07T03:01:28;12.15;;;9.65;;
22201;SDS011;11266;51.522;6.302;2023-05-07T03:02:14;13.43;;;9.48;;
22201;SDS011;11266;51.522;6.302;2023-05-07T03:03:00;12.52;;;9.70;;
22201;SDS011;11266;51.522;6.302;2023-05-07T03:03:46;11.07;;;9.23;;
22201;SDS011;11266;51.522;6.302;2023-05-07T03:04:31;11.35;;;9.27;;
22201;SDS011;11266;51.522;6.302;2023-05-07T03:05:17;12.80;;;9.63;;
22201;SDS011;11266;51.522;6.302;2023-05-07T03:06:03;12.07;;;9.38;;
22201;SDS011;11266;51.522;6.302;2023-05-07T03:06:49;13.88;;;9.63;;
22201;SDS011;11266;51.522;6.302;2023-05-07T03:07:35;12.82;;;9.75;;
22201;SDS011;11266;51.522;6.302;2023-05-07T03:08:21;12.13;;;8.98;;
22201;SDS011;11266;51.522;6.302;2023-05-07T03:09:07;11.30;;;8.85;;
22201;SDS011;11266;51.522;6.302;2023-05-07T03:09:53;10.25;;;8.43;;
22201;SDS011;11266;51.522;6.302;2023-05-07T03:10:39;9.98;;;8.82;;
22201;SDS011;11266;51.522;6.302;2023-05-07T03:11:25;12.07;;;8.93;;
22201;SDS011;11266;51.522;6.302;2023-05-07T03:12:11;12.07;;;9.50;;
22201;SDS011;11266;51.522;6.302;2023-05-07T03:12:57;13.75;;;9.50;;
22201;SDS011;11266;51.522;6.302;2023-05-07T03:13:42;9.15;;;7.78;;
22201;SDS011;11266;51.522;6.302;2023-05-07T03:14:28;11.23;;;9.07;;
22201;SDS011;11266;51.522;6.302;2023-05-07T03:15:17;12.50;;;9.05;;
22201;SDS011;11266;51.522;6.302;2023-05-07T03:16:03;12.05;;;9.55;;
22201;SDS011;11266;51.522;6.302;2023-05-07T03:16:49;13.40;;;9.10;;
22201;SDS011;11266;51.522;6.302;2023-05-07T03:17:35;12.00;;;9.60;;
22201;SDS011;11266;51.522;6.302;2023-05-07T03:18:21;10.50;;;8.80;;
22201;SDS011;11266;51.522;6.302;2023-05-07T03:19:06;12.13;;;9.20;;
22201;SDS011;11266;51.522;6.302;2023-05-07T03:19:52;10.02;;;8.43;;
22201;SDS011;11266;51.522;6.302;2023-05-07T03:20:38;10.88;;;8.70;;
22201;SDS011;11266;51.522;6.302;2023-05-07T03:21:24;10.95;;;8.25;;
22201;SDS011;11266;51.522;6.302;2023-05-07T03:22:11;10.73;;;8.57;;
22201;SDS011;11266;51.522;6.302;2023-05-07T03:22:57;10.10;;;8.63;;
22201;SDS011;11266;51.522;6.302;2023-05-07T03:23:43;11.68;;;8.75;;
22201;SDS011;11266;51.522;6.302;2023-05-07T03:24:29;11.45;;;9.25;;
22201;SDS011;11266;51.522;6.302;2023-05-07T03:25:16;10.73;;;9.05;;
22201;SDS011;11266;51.522;6.302;2023-05-07T03:26:01;11.60;;;8.32;;
22201;SDS011;11266;51.522;6.302;2023-05-07T03:26:47;10.98;;;8.20;;
22201;SDS011;11266;51.522;6.302;2023-05-07T03:27:33;10.20;;;8.30;;
22201;SDS011;11266;51.522;6.302;2023-05-07T03:28:19;11.25;;;8.70;;
22201;SDS011;11266;51.522;6.302;2023-05-07T03:29:05;10.80;;;8.68;;
22201;SDS011;11266;51.522;6.302;2023-05-07T03:29:51;9.38;;;8.27;;
22201;SDS011;11266;51.522;6.302;2023-05-07T03:30:37;12.13;;;8.85;;
22201;SDS011;11266;51.522;6.302;2023-05-07T03:31:22;12.18;;;9.73;;
22201;SDS011;11266;51.522;6.302;2023-05-07T03:32:08;15.63;;;9.90;;
22201;SDS011;11266;51.522;6.302;2023-05-07T03:32:54;12.88;;;10.02;;
22201;SDS011;11266;51.522;6.302;2023-05-07T03:33:52;16.35;;;10.63;;
22201;SDS011;11266;51.522;6.302;2023-05-07T03:34:39;15.85;;;9.38;;
22201;SDS011;11266;51.522;6.302;2023-05-07T03:35:26;12.93;;;10.10;;
22201;SDS011;11266;51.522;6.302;2023-05-07T03:36:12;12.18;;;9.48;;
22201;SDS011;11266;51.522;6.302;2023-05-07T03:36:57;14.20;;;9.43;;
22201;SDS011;11266;51.522;6.302;2023-05-07T03:37:43;11.80;;;9.35;;
22201;SDS011;11266;51.522;6.302;2023-05-07T03:38:29;12.95;;;9.75;;
22201;SDS011;11266;51.522;6.302;2023-05-07T03:39:15;10.98;;;9.43;;
22201;SDS011;11266;51.522;6.302;2023-05-07T03:40:01;11.25;;;9.05;;
22201;SDS011;11266;51.522;6.302;2023-05-07T03:40:47;14.02;;;9.98;;
22201;SDS011;11266;51.522;6.302;2023-05-07T03:41:36;14.82;;;9.88;;
22201;SDS011;11266;51.522;6.302;2023-05-07T03:42:22;16.60;;;10.40;;
22201;SDS011;11266;51.522;6.302;2023-05-07T03:43:08;11.75;;;9.32;;
22201;SDS011;11266;51.522;6.302;2023-05-07T03:43:54;12.13;;;9.48;;
22201;SDS011;11266;51.522;6.302;2023-05-07T03:44:39;11.65;;;9.75;;
22201;SDS011;11266;51.522;6.302;2023-05-07T03:45:25;11.73;;;9.88;;
22201;SDS011;11266;51.522;6.302;2023-05-07T03:46:11;14.85;;;10.48;;
22201;SDS011;11266;51.522;6.302;2023-05-07T03:46:57;12.77;;;9.93;;
22201;SDS011;11266;51.522;6.302;2023-05-07T03:47:43;12.80;;;10.35;;
22201;SDS011;11266;51.522;6.302;2023-05-07T03:48:29;13.07;;;10.18;;
22201;SDS011;11266;51.522;6.302;2023-05-07T03:49:15;11.13;;;9.93;;
22201;SDS011;11266;51.522;6.302;2023-05-07T03:50:01;12.07;;;10.00;;
22201;SDS011;11266;51.522;6.302;2023-05-07T03:50:47;15.27;;;10.18;;
22201;SDS011;11266;51.522;6.302;2023-05-07T03:51:33;11.27;;;9.45;;
22201;SDS011;11266;51.522;6.302;2023-05-07T03:52:19;10.82;;;9.15;;
22201;SDS011;11266;51.522;6.302;2023-05-07T03:53:08;11.60;;;9.43;;
22201;SDS011;11266;51.522;6.302;2023-05-07T03:53:54;14.68;;;10.07;;
22201;SDS011;11266;51.522;6.302;2023-05-07T03:54:42;12.70;;;10.05;;
22201;SDS011;11266;51.522;6.302;2023-05-07T03:55:27;11.40;;;9.27;;
22201;SDS011;11266;51.522;6.302;2023-05-07T03:56:14;13.82;;;10.10;;
22201;SDS011;11266;51.522;6.302;2023-05-07T03:57:00;12.82;;;9.88;;
22201;SDS011;11266;51.522;6.302;2023-05-07T03:57:46;11.88;;;10.10;;
22201;SDS011;11266;51.522;6.302;2023-05-07T03:58:32;11.20;;;9.40;;
22201;SDS011;11266;51.522;6.302;2023-05-07T03:59:18;10.88;;;9.02;;
22201;SDS011;11266;51.522;6.302;2023-05-07T04:00:04;12.70;;;10.00;;
22201;SDS011;11266;51.522;6.302;2023-05-07T04:00:51;11.80;;;9.70;;
22201;SDS011;11266;51.522;6.302;2023-05-07T04:01:37;13.48;;;10.05;;
22201;SDS011;11266;51.522;6.302;2023-05-07T04:02:23;12.52;;;9.98;;
22201;SDS011;11266;51.522;6.302;2023-05-07T04:03:09;12.40;;;9.75;;
22201;SDS011;11266;51.522;6.302;2023-05-07T04:03:55;14.32;;;10.05;;
22201;SDS011;11266;51.522;6.302;2023-05-07T04:04:40;13.82;;;9.52;;
22201;SDS011;11266;51.522;6.302;2023-05-07T04:05:26;12.13;;;10.18;;
22201;SDS011;11266;51.522;6.302;2023-05-07T04:06:12;15.63;;;11.27;;
22201;SDS011;11266;51.522;6.302;2023-05-07T04:06:58;13.07;;;10.07;;
22201;SDS011;11266;51.522;6.302;2023-05-07T04:07:48;12.27;;;9.95;;
22201;SDS011;11266;51.522;6.302;2023-05-07T04:08:33;13.77;;;10.57;;
22201;SDS011;11266;51.522;6.302;2023-05-07T04:09:19;11.82;;;10.00;;
22201;SDS011;11266;51.522;6.302;2023-05-07T04:10:05;13.20;;;10.30;;
22201;SDS011;11266;51.522;6.302;2023-05-07T04:10:57;13.05;;;10.63;;
22201;SDS011;11266;51.522;6.302;2023-05-07T04:11:43;13.50;;;10.13;;
22201;SDS011;11266;51.522;6.302;2023-05-07T04:12:29;12.40;;;10.00;;
22201;SDS011;11266;51.522;6.302;2023-05-07T04:13:15;11.98;;;9.73;;
22201;SDS011;11266;51.522;6.302;2023-05-07T04:14:01;12.50;;;10.65;;
22201;SDS011;11266;51.522;6.302;2023-05-07T04:14:47;13.77;;;10.88;;
22201;SDS011;11266;51.522;6.302;2023-05-07T04:15:32;12.75;;;9.93;;
22201;SDS011;11266;51.522;6.302;2023-05-07T04:16:18;12.95;;;10.13;;
22201;SDS011;11266;51.522;6.302;2023-05-07T04:17:04;11.70;;;10.38;;
22201;SDS011;11266;51.522;6.302;2023-05-07T04:17:52;11.60;;;9.95;;
22201;SDS011;11266;51.522;6.302;2023-05-07T04:18:37;13.45;;;10.70;;
22201;SDS011;11266;51.522;6.302;2023-05-07T04:19:23;12.00;;;10.20;;
22201;SDS011;11266;51.522;6.302;2023-05-07T04:20:10;14.00;;;10.40;;
22201;SDS011;11266;51.522;6.302;2023-05-07T04:20:59;14.38;;;9.52;;
22201;SDS011;11266;51.522;6.302;2023-05-07T04:21:45;12.73;;;10.40;;
22201;SDS011;11266;51.522;6.302;2023-05-07T04:22:30;12.68;;;9.98;;
22201;SDS011;11266;51.522;6.302;2023-05-07T04:23:16;14.02;;;10.02;;
22201;SDS011;11266;51.522;6.302;2023-05-07T04:24:02;12.50;;;10.73;;
22201;SDS011;11266;51.522;6.302;2023-05-07T04:24:49;13.48;;;10.20;;
22201;SDS011;11266;51.522;6.302;2023-05-07T04:25:34;12.15;;;9.77;;
22201;SDS011;11266;51.522;6.302;2023-05-07T04:26:20;12.45;;;10.55;;
22201;SDS011;11266;51.522;6.302;2023-05-07T04:27:07;11.30;;;9.88;;
22201;SDS011;11266;51.522;6.302;2023-05-07T04:27:52;11.45;;;9.30;;
22201;SDS011;11266;51.522;6.302;2023-05-07T04:28:38;12.85;;;10.45;;
22201;SDS011;11266;51.522;6.302;2023-05-07T04:29:25;11.85;;;9.82;;
22201;SDS011;11266;51.522;6.302;2023-05-07T04:30:11;13.20;;;10.23;;
22201;SDS011;11266;51.522;6.302;2023-05-07T04:30:57;10.93;;;9.15;;
22201;SDS011;11266;51.522;6.302;2023-05-07T04:31:43;14.82;;;10.02;;
22201;SDS011;11266;51.522;6.302;2023-05-07T04:32:29;12.10;;;10.23;;
22201;SDS011;11266;51.522;6.302;2023-05-07T04:33:15;14.30;;;9.98;;
22201;SDS011;11266;51.522;6.302;2023-05-07T04:34:02;10.60;;;9.48;;
22201;SDS011;11266;51.522;6.302;2023-05-07T04:34:48;12.90;;;9.85;;
22201;SDS011;11266;51.522;6.302;2023-05-07T04:35:34;14.27;;;10.02;;
22201;SDS011;11266;51.522;6.302;2023-05-07T04:36:20;11.43;;;8.88;;